createdAt,value
2023-04-05T00:00:32.305Z,982.77
2023-04-05T00:01:53.183Z,982.76
2023-04-05T00:02:32.129Z,982.76
2023-04-05T00:03:32.094Z,982.72
2023-04-05T00:04:32.033Z,982.72
2023-04-05T00:05:31.860Z,982.69
2023-04-05T00:06:31.798Z,982.72
2023-04-05T00:07:52.662Z,982.67
2023-04-05T00:08:31.607Z,982.69
2023-04-05T00:09:31.512Z,982.68
2023-04-05T00:10:31.437Z,982.67
2023-04-05T00:11:31.336Z,982.70
2023-04-05T00:12:31.254Z,982.64
2023-04-05T00:13:52.155Z,982.67
2023-04-05T00:14:31.084Z,982.66
2023-04-05T00:15:30.988Z,982.67
2023-04-05T00:16:30.981Z,982.69
2023-04-05T00:17:30.852Z,982.66
2023-04-05T00:18:30.732Z,982.64
2023-04-05T00:19:51.638Z,982.65
2023-04-05T00:20:30.563Z,982.63
2023-04-05T00:21:30.471Z,982.64
2023-04-05T00:22:30.385Z,982.62
2023-04-05T00:23:30.294Z,982.61
2023-04-05T00:24:30.211Z,982.62
2023-04-05T00:25:51.108Z,982.60
2023-04-05T00:26:30.037Z,982.59
2023-04-05T00:27:29.951Z,982.60
2023-04-05T00:28:29.866Z,982.57
2023-04-05T00:29:29.781Z,982.58
2023-04-05T00:30:29.723Z,982.57
2023-04-05T00:31:50.601Z,982.54
2023-04-05T00:32:29.537Z,982.53
2023-04-05T00:33:29.428Z,982.52
2023-04-05T00:34:29.351Z,982.54
2023-04-05T00:35:29.270Z,982.52
2023-04-05T00:36:29.178Z,982.56
2023-04-05T00:37:50.058Z,982.51
2023-04-05T00:38:29.005Z,982.49
2023-04-05T00:39:28.909Z,982.50
2023-04-05T00:40:28.824Z,982.49
2023-04-05T00:41:28.733Z,982.52
2023-04-05T00:42:28.654Z,982.45
2023-04-05T00:43:49.540Z,982.46
2023-04-05T00:44:28.483Z,982.48
2023-04-05T00:45:28.392Z,982.48
2023-04-05T00:46:28.400Z,982.47
2023-04-05T00:47:28.242Z,982.48
2023-04-05T00:48:28.133Z,982.42
2023-04-05T00:49:49.015Z,982.43
2023-04-05T00:50:27.964Z,982.45
2023-04-05T00:51:27.864Z,982.40
2023-04-05T00:52:27.790Z,982.41
2023-04-05T00:53:27.696Z,982.35
2023-04-05T00:54:27.619Z,982.37
2023-04-05T00:55:48.504Z,982.37
2023-04-05T00:56:27.441Z,982.35
2023-04-05T00:57:27.347Z,982.39
2023-04-05T00:58:27.275Z,982.40
2023-04-05T00:59:27.220Z,982.36
2023-04-05T01:00:27.089Z,982.37
2023-04-05T01:01:47.990Z,982.34
2023-04-05T01:02:26.923Z,982.38
2023-04-05T01:03:26.816Z,982.37
2023-04-05T01:04:26.794Z,982.36
2023-04-05T01:05:26.648Z,982.34
2023-04-05T01:06:26.572Z,982.33
2023-04-05T01:07:47.459Z,982.35
2023-04-05T01:08:26.391Z,982.33
2023-04-05T01:09:26.297Z,982.31
2023-04-05T01:10:26.212Z,982.27
2023-04-05T01:11:26.128Z,982.27
2023-04-05T01:12:26.044Z,982.27
2023-04-05T01:13:46.962Z,982.24
2023-04-05T01:14:25.870Z,982.25
2023-04-05T01:15:25.771Z,982.26
2023-04-05T01:16:25.687Z,982.23
2023-04-05T01:17:25.636Z,982.22
2023-04-05T01:18:25.513Z,982.14
2023-04-05T01:19:46.399Z,982.14
2023-04-05T01:20:25.348Z,982.12
2023-04-05T01:21:25.257Z,982.11
2023-04-05T01:22:25.180Z,982.06
2023-04-05T01:23:25.070Z,982.08
2023-04-05T01:24:24.994Z,982.05
2023-04-05T01:25:45.880Z,982.03
2023-04-05T01:26:24.816Z,982.02
2023-04-05T01:27:24.733Z,982.07
2023-04-05T01:28:24.676Z,982.04
2023-04-05T01:29:24.557Z,982.04
2023-04-05T01:30:24.468Z,981.97
2023-04-05T01:31:45.388Z,982.01
2023-04-05T01:32:24.301Z,982.02
2023-04-05T01:33:24.203Z,982.00
2023-04-05T01:34:24.122Z,981.98
2023-04-05T01:35:24.035Z,981.97
2023-04-05T01:36:24.006Z,981.96
2023-04-05T01:37:44.842Z,981.94
2023-04-05T01:38:23.773Z,981.91
2023-04-05T01:39:23.680Z,981.89
2023-04-05T01:40:23.606Z,981.87
2023-04-05T01:41:23.516Z,981.88
2023-04-05T01:42:23.430Z,981.88
2023-04-05T01:43:44.322Z,981.87
2023-04-05T01:44:23.248Z,981.85
2023-04-05T01:45:23.157Z,981.84
2023-04-05T01:46:23.118Z,981.85
2023-04-05T01:47:23.001Z,981.86
2023-04-05T01:48:22.901Z,981.83
2023-04-05T01:49:43.795Z,981.82
2023-04-05T01:50:22.733Z,981.82
2023-04-05T01:51:22.638Z,981.82
2023-04-05T01:52:22.553Z,981.84
2023-04-05T01:53:22.459Z,981.81
2023-04-05T01:54:22.403Z,981.81
2023-04-05T01:55:43.267Z,981.81
2023-04-05T01:56:22.208Z,981.83
2023-04-05T01:57:22.115Z,981.79
2023-04-05T01:58:22.037Z,981.78
2023-04-05T01:59:22.047Z,981.77
2023-04-05T02:00:21.847Z,981.75
2023-04-05T02:01:42.743Z,981.76
2023-04-05T02:02:21.681Z,981.76
2023-04-05T02:03:21.688Z,981.72
2023-04-05T02:04:21.508Z,981.72
2023-04-05T02:05:21.437Z,981.71
2023-04-05T02:06:21.335Z,981.70
2023-04-05T02:07:42.211Z,981.76
2023-04-05T02:08:21.154Z,981.70
2023-04-05T02:09:21.058Z,981.75
2023-04-05T02:10:20.980Z,981.71
2023-04-05T02:11:20.891Z,981.74
2023-04-05T02:12:20.801Z,981.69
2023-04-05T02:13:41.705Z,981.74
2023-04-05T02:14:20.627Z,981.73
2023-04-05T02:15:20.543Z,981.74
2023-04-05T02:16:20.483Z,981.73
2023-04-05T02:17:20.362Z,981.73
2023-04-05T02:18:20.280Z,981.74
2023-04-05T02:19:41.249Z,981.74
2023-04-05T02:20:20.101Z,981.75
2023-04-05T02:21:20.018Z,981.72
2023-04-05T02:22:19.925Z,981.74
2023-04-05T02:23:19.844Z,981.71
2023-04-05T02:24:19.754Z,981.71
2023-04-05T02:25:40.647Z,981.72
2023-04-05T02:26:19.582Z,981.75
2023-04-05T02:27:19.491Z,981.72
2023-04-05T02:28:19.401Z,981.73
2023-04-05T02:29:19.322Z,981.71
2023-04-05T02:30:19.230Z,981.75
2023-04-05T02:31:40.164Z,981.71
2023-04-05T02:32:19.055Z,981.73
2023-04-05T02:33:19.103Z,981.74
2023-04-05T02:34:18.878Z,981.71
2023-04-05T02:35:18.812Z,981.75
2023-04-05T02:36:18.713Z,981.74
2023-04-05T02:37:39.594Z,981.78
2023-04-05T02:38:18.529Z,981.79
2023-04-05T02:39:18.439Z,981.79
2023-04-05T02:40:18.358Z,981.83
2023-04-05T02:41:18.264Z,981.80
2023-04-05T02:42:18.188Z,981.78
2023-04-05T02:43:39.073Z,981.79
2023-04-05T02:44:18.009Z,981.82
2023-04-05T02:45:17.912Z,981.80
2023-04-05T02:46:17.879Z,981.81
2023-04-05T02:47:17.740Z,981.71
2023-04-05T02:48:17.654Z,981.76
2023-04-05T02:49:38.541Z,981.74
2023-04-05T02:50:17.484Z,981.74
2023-04-05T02:51:17.385Z,981.73
2023-04-05T02:52:17.302Z,981.75
2023-04-05T02:53:17.328Z,981.70
2023-04-05T02:54:17.122Z,981.69
2023-04-05T02:55:38.008Z,981.69
2023-04-05T02:56:16.966Z,981.67
2023-04-05T02:57:16.858Z,981.65
2023-04-05T02:58:16.776Z,981.68
2023-04-05T02:59:16.699Z,981.65
2023-04-05T03:00:16.602Z,981.60
2023-04-05T03:01:37.522Z,981.61
2023-04-05T03:02:16.424Z,981.60
2023-04-05T03:03:16.434Z,981.60
2023-04-05T03:04:16.250Z,981.57
2023-04-05T03:05:16.164Z,981.58
2023-04-05T03:06:16.073Z,981.61
2023-04-05T03:07:36.955Z,981.59
2023-04-05T03:08:15.896Z,981.57
2023-04-05T03:09:15.878Z,981.60
2023-04-05T03:10:15.723Z,981.59
2023-04-05T03:11:15.628Z,981.56
2023-04-05T03:12:15.549Z,981.57
2023-04-05T03:13:36.437Z,981.59
2023-04-05T03:14:15.377Z,981.53
2023-04-05T03:15:15.278Z,981.51
2023-04-05T03:16:15.218Z,981.54
2023-04-05T03:17:15.102Z,981.51
2023-04-05T03:18:15.035Z,981.46
2023-04-05T03:19:35.902Z,981.47
2023-04-05T03:20:14.840Z,981.45
2023-04-05T03:21:14.777Z,981.44
2023-04-05T03:22:14.690Z,981.43
2023-04-05T03:23:14.580Z,981.46
2023-04-05T03:24:14.499Z,981.46
2023-04-05T03:25:35.382Z,981.43
2023-04-05T03:26:14.320Z,981.45
2023-04-05T03:27:14.231Z,981.45
2023-04-05T03:28:14.154Z,981.40
2023-04-05T03:29:14.058Z,981.41
2023-04-05T03:30:13.972Z,981.43
2023-04-05T03:31:34.914Z,981.43
2023-04-05T03:32:13.788Z,981.42
2023-04-05T03:33:13.708Z,981.39
2023-04-05T03:34:13.621Z,981.41
2023-04-05T03:35:13.533Z,981.42
2023-04-05T03:36:13.437Z,981.40
2023-04-05T03:37:34.327Z,981.38
2023-04-05T03:38:13.269Z,981.39
2023-04-05T03:39:13.174Z,981.41
2023-04-05T03:40:13.090Z,981.38
2023-04-05T03:41:12.992Z,981.39
2023-04-05T03:42:12.909Z,981.40
2023-04-05T03:43:33.810Z,981.38
2023-04-05T03:44:12.735Z,981.38
2023-04-05T03:45:12.646Z,981.36
2023-04-05T03:46:12.588Z,981.40
2023-04-05T03:47:12.477Z,981.39
2023-04-05T03:48:12.378Z,981.40
2023-04-05T03:49:33.281Z,981.43
2023-04-05T03:50:12.202Z,981.44
2023-04-05T03:51:12.114Z,981.45
2023-04-05T03:52:12.028Z,981.44
2023-04-05T03:53:11.966Z,981.44
2023-04-05T03:54:11.854Z,981.44
2023-04-05T03:55:32.739Z,981.48
2023-04-05T03:56:11.674Z,981.48
2023-04-05T03:57:11.590Z,981.46
2023-04-05T03:58:11.495Z,981.44
2023-04-05T03:59:11.442Z,981.47
2023-04-05T04:00:11.319Z,981.50
2023-04-05T04:01:32.222Z,981.47
2023-04-05T04:02:11.204Z,981.47
2023-04-05T04:03:11.099Z,981.47
2023-04-05T04:04:10.968Z,981.49
2023-04-05T04:05:10.899Z,981.48
2023-04-05T04:06:10.848Z,981.47
2023-04-05T04:07:31.680Z,981.45
2023-04-05T04:08:10.695Z,981.46
2023-04-05T04:09:10.525Z,981.45
2023-04-05T04:10:10.438Z,981.48
2023-04-05T04:11:10.353Z,981.45
2023-04-05T04:12:10.261Z,981.47
2023-04-05T04:13:31.154Z,981.50
2023-04-05T04:14:10.088Z,981.49
2023-04-05T04:15:09.997Z,981.51
2023-04-05T04:16:09.948Z,981.51
2023-04-05T04:17:09.823Z,981.48
2023-04-05T04:18:09.870Z,981.50
2023-04-05T04:19:30.625Z,981.47
2023-04-05T04:20:09.561Z,981.44
2023-04-05T04:21:09.484Z,981.45
2023-04-05T04:22:09.377Z,981.51
2023-04-05T04:23:09.295Z,981.48
2023-04-05T04:24:09.209Z,981.49
2023-04-05T04:25:30.094Z,981.51
2023-04-05T04:26:09.028Z,981.52
2023-04-05T04:27:08.936Z,981.57
2023-04-05T04:28:08.846Z,981.52
2023-04-05T04:29:08.796Z,981.54
2023-04-05T04:30:08.679Z,981.57
2023-04-05T04:31:29.596Z,981.59
2023-04-05T04:32:08.519Z,981.56
2023-04-05T04:33:09.204Z,981.56
2023-04-05T04:34:08.324Z,981.55
2023-04-05T04:35:08.232Z,981.53
2023-04-05T04:36:08.204Z,981.57
2023-04-05T04:37:29.038Z,981.59
2023-04-05T04:38:08.064Z,981.54
2023-04-05T04:39:07.880Z,981.54
2023-04-05T04:40:07.795Z,981.53
2023-04-05T04:41:07.733Z,981.50
2023-04-05T04:42:07.621Z,981.51
2023-04-05T04:43:28.503Z,981.51
2023-04-05T04:44:07.440Z,981.54
2023-04-05T04:45:07.352Z,981.54
2023-04-05T04:46:07.290Z,981.51
2023-04-05T04:47:07.183Z,981.53
2023-04-05T04:48:07.169Z,981.51
2023-04-05T04:49:27.992Z,981.48
2023-04-05T04:50:06.908Z,981.48
2023-04-05T04:51:06.828Z,981.52
2023-04-05T04:52:06.735Z,981.46
2023-04-05T04:53:06.673Z,981.49
2023-04-05T04:54:06.572Z,981.49
2023-04-05T04:55:27.456Z,981.51
2023-04-05T04:56:06.386Z,981.48
2023-04-05T04:57:06.302Z,981.53
2023-04-05T04:58:06.246Z,981.51
2023-04-05T04:59:06.151Z,981.49
2023-04-05T05:00:06.020Z,981.52
2023-04-05T05:01:26.969Z,981.50
2023-04-05T05:02:05.851Z,981.51
2023-04-05T05:03:05.802Z,981.54
2023-04-05T05:04:05.765Z,981.54
2023-04-05T05:05:05.589Z,981.49
2023-04-05T05:06:05.501Z,981.45
2023-04-05T05:07:26.390Z,981.49
2023-04-05T05:08:05.325Z,981.52
2023-04-05T05:09:05.235Z,981.53
2023-04-05T05:10:05.149Z,981.53
2023-04-05T05:11:05.064Z,981.52
2023-04-05T05:12:04.972Z,981.55
2023-04-05T05:13:25.861Z,981.54
2023-04-05T05:14:04.805Z,981.54
2023-04-05T05:15:04.709Z,981.58
2023-04-05T05:16:04.682Z,981.59
2023-04-05T05:17:04.547Z,981.62
2023-04-05T05:18:04.527Z,981.64
2023-04-05T05:19:25.332Z,981.61
2023-04-05T05:20:04.265Z,981.58
2023-04-05T05:21:04.181Z,981.64
2023-04-05T05:22:04.093Z,981.58
2023-04-05T05:23:04.037Z,981.59
2023-04-05T05:24:03.921Z,981.59
2023-04-05T05:25:24.825Z,981.56
2023-04-05T05:26:03.742Z,981.60
2023-04-05T05:27:03.659Z,981.59
2023-04-05T05:28:03.574Z,981.64
2023-04-05T05:29:03.498Z,981.69
2023-04-05T05:30:03.384Z,981.64
2023-04-05T05:31:24.314Z,981.65
2023-04-05T05:32:03.210Z,981.65
2023-04-05T05:33:03.200Z,981.62
2023-04-05T05:34:03.036Z,981.64
2023-04-05T05:35:02.942Z,981.67
2023-04-05T05:36:02.864Z,981.69
2023-04-05T05:37:23.740Z,981.71
2023-04-05T05:38:02.669Z,981.67
2023-04-05T05:39:02.587Z,981.71
2023-04-05T05:40:02.501Z,981.68
2023-04-05T05:41:02.406Z,981.69
2023-04-05T05:42:02.317Z,981.72
2023-04-05T05:43:23.209Z,981.70
2023-04-05T05:44:02.138Z,981.69
2023-04-05T05:45:02.056Z,981.70
2023-04-05T05:46:02.063Z,981.72
2023-04-05T05:47:01.875Z,981.67
2023-04-05T05:48:01.805Z,981.70
2023-04-05T05:49:22.679Z,981.74
2023-04-05T05:50:01.616Z,981.75
2023-04-05T05:51:01.529Z,981.78
2023-04-05T05:52:01.437Z,981.77
2023-04-05T05:53:01.907Z,981.81
2023-04-05T05:54:01.273Z,981.80
2023-04-05T05:55:22.146Z,981.79
2023-04-05T05:56:01.079Z,981.78
2023-04-05T05:57:00.995Z,981.80
2023-04-05T05:58:00.915Z,981.80
2023-04-05T05:59:00.848Z,981.83
2023-04-05T06:00:00.738Z,981.86
2023-04-05T06:01:21.624Z,981.83
2023-04-05T06:02:00.552Z,981.83
2023-04-05T06:03:00.570Z,981.87
2023-04-05T06:04:00.486Z,981.86
2023-04-05T06:05:00.374Z,981.86
2023-04-05T06:06:00.205Z,981.79
2023-04-05T06:07:21.115Z,981.80
2023-04-05T06:08:00.043Z,981.82
2023-04-05T06:08:59.981Z,981.78
2023-04-05T06:09:59.941Z,981.79
2023-04-05T06:10:59.759Z,981.80
2023-04-05T06:11:59.680Z,981.82
2023-04-05T06:13:20.575Z,981.78
2023-04-05T06:13:59.501Z,981.76
2023-04-05T06:14:59.421Z,981.76
2023-04-05T06:15:59.326Z,981.79
2023-04-05T06:16:59.247Z,981.79
2023-04-05T06:17:59.177Z,981.78
2023-04-05T06:19:20.056Z,981.81
2023-04-05T06:19:58.970Z,981.81
2023-04-05T06:20:58.896Z,981.86
2023-04-05T06:21:58.796Z,981.82
2023-04-05T06:22:58.710Z,981.83
2023-04-05T06:23:58.620Z,981.81
2023-04-05T06:25:19.509Z,981.82
2023-04-05T06:25:58.443Z,981.84
2023-04-05T06:26:58.359Z,981.80
2023-04-05T06:27:58.261Z,981.84
2023-04-05T06:28:58.175Z,981.85
2023-04-05T06:29:58.083Z,981.88
2023-04-05T06:31:19.007Z,981.88
2023-04-05T06:31:58.102Z,981.86
2023-04-05T06:32:57.854Z,981.90
2023-04-05T06:33:57.738Z,981.85
2023-04-05T06:34:57.650Z,981.85
2023-04-05T06:35:57.620Z,981.88
2023-04-05T06:37:18.482Z,981.82
2023-04-05T06:37:57.390Z,981.85
2023-04-05T06:38:57.305Z,981.86
2023-04-05T06:39:57.211Z,981.83
2023-04-05T06:40:57.122Z,981.90
2023-04-05T06:41:57.030Z,981.87
2023-04-05T06:43:17.933Z,981.90
2023-04-05T06:43:56.969Z,981.91
2023-04-05T06:44:56.770Z,981.92
2023-04-05T06:45:56.725Z,981.92
2023-04-05T06:46:56.594Z,981.92
2023-04-05T06:47:56.517Z,981.91
2023-04-05T06:49:17.401Z,981.94
2023-04-05T06:49:56.326Z,981.95
2023-04-05T06:50:56.249Z,981.94
2023-04-05T06:51:56.154Z,981.93
2023-04-05T06:52:56.068Z,981.93
2023-04-05T06:53:55.977Z,981.91
2023-04-05T06:55:16.877Z,981.90
2023-04-05T06:55:55.808Z,981.93
2023-04-05T06:56:55.721Z,981.97
2023-04-05T06:57:55.624Z,981.95
2023-04-05T06:58:55.555Z,981.94
2023-04-05T06:59:55.451Z,981.95
2023-04-05T07:01:16.358Z,981.97
2023-04-05T07:01:55.290Z,981.95
2023-04-05T07:02:55.210Z,982.00
2023-04-05T07:03:55.129Z,982.00
2023-04-05T07:04:55.052Z,981.97
2023-04-05T07:05:54.934Z,981.97
2023-04-05T07:07:15.875Z,982.02
2023-04-05T07:07:54.752Z,981.97
2023-04-05T07:08:54.716Z,981.97
2023-04-05T07:09:54.585Z,981.96
2023-04-05T07:10:54.503Z,981.99
2023-04-05T07:11:54.405Z,981.94
2023-04-05T07:13:15.306Z,981.97
2023-04-05T07:13:54.239Z,981.99
2023-04-05T07:14:54.145Z,981.94
2023-04-05T07:15:54.100Z,981.97
2023-04-05T07:16:53.976Z,981.99
2023-04-05T07:17:53.919Z,981.93
2023-04-05T07:19:14.776Z,981.95
2023-04-05T07:19:53.711Z,981.93
2023-04-05T07:20:53.634Z,981.87
2023-04-05T07:21:53.542Z,981.91
2023-04-05T07:22:53.456Z,981.93
2023-04-05T07:23:53.364Z,981.92
2023-04-05T07:25:14.267Z,981.92
2023-04-05T07:25:53.187Z,981.95
2023-04-05T07:26:53.112Z,981.94
2023-04-05T07:27:53.017Z,981.93
2023-04-05T07:28:52.935Z,981.91
2023-04-05T07:29:53.046Z,981.91
2023-04-05T07:31:13.756Z,981.92
2023-04-05T07:31:52.707Z,981.91
2023-04-05T07:32:52.637Z,981.91
2023-04-05T07:33:52.498Z,981.90
2023-04-05T07:34:52.420Z,981.93
2023-04-05T07:35:52.394Z,981.94
2023-04-05T07:37:13.220Z,981.95
2023-04-05T07:37:52.155Z,981.93
2023-04-05T07:38:52.067Z,981.96
2023-04-05T07:39:51.979Z,981.97
2023-04-05T07:40:51.899Z,981.93
2023-04-05T07:41:51.813Z,981.98
2023-04-05T07:43:12.700Z,981.94
2023-04-05T07:43:51.645Z,981.95
2023-04-05T07:44:51.550Z,981.95
2023-04-05T07:45:51.460Z,981.94
2023-04-05T07:46:51.425Z,981.94
2023-04-05T07:47:51.338Z,981.98
2023-04-05T07:49:12.197Z,981.96
2023-04-05T07:49:51.115Z,981.96
2023-04-05T07:50:51.039Z,981.93
2023-04-05T07:51:50.948Z,981.95
2023-04-05T07:52:50.864Z,981.97
2023-04-05T07:53:50.775Z,981.96
2023-04-05T07:55:11.671Z,981.96
2023-04-05T07:55:50.611Z,981.93
2023-04-05T07:56:50.526Z,981.92
2023-04-05T07:57:50.432Z,981.84
2023-04-05T07:58:50.361Z,981.89
2023-04-05T07:59:50.260Z,981.84
2023-04-05T08:01:11.159Z,981.86
2023-04-05T08:01:50.091Z,981.86
2023-04-05T08:02:50.191Z,981.87
2023-04-05T08:03:50.033Z,981.87
2023-04-05T08:04:49.848Z,981.88
2023-04-05T08:05:49.746Z,981.87
2023-04-05T08:07:10.645Z,981.90
2023-04-05T08:07:49.592Z,981.90
2023-04-05T08:08:49.491Z,981.89
2023-04-05T08:09:49.411Z,981.89
2023-04-05T08:10:49.329Z,981.85
2023-04-05T08:11:49.242Z,981.84
2023-04-05T08:13:10.131Z,981.81
2023-04-05T08:13:49.095Z,981.80
2023-04-05T08:14:48.982Z,981.82
2023-04-05T08:15:48.894Z,981.83
2023-04-05T08:16:48.826Z,981.81
2023-04-05T08:17:48.785Z,981.84
2023-04-05T08:19:09.624Z,981.82
2023-04-05T08:19:48.564Z,981.79
2023-04-05T08:20:48.473Z,981.82
2023-04-05T08:21:48.397Z,981.79
2023-04-05T08:22:48.320Z,981.78
2023-04-05T08:23:48.234Z,981.79
2023-04-05T08:25:09.124Z,981.77
2023-04-05T08:25:48.063Z,981.74
2023-04-05T08:26:48.081Z,981.78
2023-04-05T08:27:47.889Z,981.80
2023-04-05T08:28:47.805Z,981.78
2023-04-05T08:29:47.725Z,981.81
2023-04-05T08:31:08.619Z,981.85
2023-04-05T08:31:47.577Z,981.86
2023-04-05T08:32:47.503Z,981.85
2023-04-05T08:33:47.394Z,981.86
2023-04-05T08:34:47.305Z,981.86
2023-04-05T08:35:47.228Z,981.84
2023-04-05T08:37:08.108Z,981.78
2023-04-05T08:37:47.050Z,981.82
2023-04-05T08:38:46.962Z,981.79
2023-04-05T08:39:46.885Z,981.78
2023-04-05T08:40:46.806Z,981.82
2023-04-05T08:41:46.722Z,981.82
2023-04-05T08:43:07.606Z,981.80
2023-04-05T08:43:46.558Z,981.84
2023-04-05T08:44:46.496Z,981.85
2023-04-05T08:45:46.413Z,981.85
2023-04-05T08:46:46.297Z,981.84
2023-04-05T08:47:46.354Z,981.84
2023-04-05T08:49:07.128Z,981.84
2023-04-05T08:49:46.065Z,981.82
2023-04-05T08:50:45.966Z,981.84
2023-04-05T08:51:45.890Z,981.83
2023-04-05T08:52:45.804Z,981.84
2023-04-05T08:53:45.727Z,981.78
2023-04-05T08:55:06.653Z,981.83
2023-04-05T08:55:45.556Z,981.84
2023-04-05T08:56:45.486Z,981.84
2023-04-05T08:57:45.390Z,981.88
2023-04-05T08:58:45.305Z,981.85
2023-04-05T08:59:45.228Z,981.84
2023-04-05T09:01:06.138Z,981.85
2023-04-05T09:01:45.200Z,981.85
2023-04-05T09:02:45.012Z,981.83
2023-04-05T09:03:44.903Z,981.86
2023-04-05T09:04:45.015Z,981.85
2023-04-05T09:05:44.730Z,981.82
2023-04-05T09:07:05.636Z,981.82
2023-04-05T09:07:44.564Z,981.84
2023-04-05T09:08:44.480Z,981.81
2023-04-05T09:09:44.398Z,981.77
2023-04-05T09:10:44.324Z,981.79
2023-04-05T09:11:44.241Z,981.78
2023-04-05T09:13:05.676Z,981.74
2023-04-05T09:13:44.084Z,981.81
2023-04-05T09:14:43.990Z,981.81
2023-04-05T09:15:43.908Z,981.82
2023-04-05T09:16:43.899Z,981.84
2023-04-05T09:17:43.754Z,981.84
2023-04-05T09:19:04.641Z,981.80
2023-04-05T09:19:43.592Z,981.85
2023-04-05T09:20:43.491Z,981.79
2023-04-05T09:21:43.416Z,981.79
2023-04-05T09:22:43.333Z,981.77
2023-04-05T09:23:43.259Z,981.75
2023-04-05T09:25:04.144Z,981.72
2023-04-05T09:25:43.090Z,981.67
2023-04-05T09:26:42.997Z,981.70
2023-04-05T09:27:42.924Z,981.70
2023-04-05T09:28:42.834Z,981.72
2023-04-05T09:29:42.750Z,981.68
2023-04-05T09:31:03.705Z,981.67
2023-04-05T09:31:42.642Z,981.65
2023-04-05T09:32:42.543Z,981.71
2023-04-05T09:33:42.426Z,981.69
2023-04-05T09:34:42.350Z,981.67
2023-04-05T09:35:42.278Z,981.67
2023-04-05T09:37:03.162Z,981.66
2023-04-05T09:37:42.100Z,981.63
2023-04-05T09:38:42.022Z,981.69
2023-04-05T09:39:41.931Z,981.65
2023-04-05T09:40:42.036Z,981.68
2023-04-05T09:41:41.771Z,981.61
2023-04-05T09:43:02.660Z,981.67
2023-04-05T09:43:41.620Z,981.66
2023-04-05T09:44:41.526Z,981.65
2023-04-05T09:45:41.449Z,981.63
2023-04-05T09:46:41.487Z,981.63
2023-04-05T09:47:41.298Z,981.62
2023-04-05T09:49:02.200Z,981.66
2023-04-05T09:49:41.118Z,981.64
2023-04-05T09:50:41.364Z,981.66
2023-04-05T09:51:40.975Z,981.64
2023-04-05T09:52:40.870Z,981.66
2023-04-05T09:53:40.792Z,981.61
2023-04-05T09:55:01.680Z,981.63
2023-04-05T09:55:42.681Z,981.68
2023-04-05T09:56:40.547Z,981.61
2023-04-05T09:57:40.458Z,981.66
2023-04-05T09:58:40.375Z,981.65
2023-04-05T09:59:40.289Z,981.67
2023-04-05T10:01:13.931Z,981.68
2023-04-05T10:01:41.623Z,981.62
2023-04-05T10:02:40.153Z,981.63
2023-04-05T10:03:40.070Z,981.60
2023-04-05T10:04:39.880Z,981.60
2023-04-05T10:05:39.798Z,981.61
2023-04-05T10:07:00.752Z,981.63
2023-04-05T10:07:39.647Z,981.59
2023-04-05T10:08:39.553Z,981.57
2023-04-05T10:09:39.476Z,981.54
2023-04-05T10:10:39.687Z,981.54
2023-04-05T10:11:39.353Z,981.53
2023-04-05T10:13:00.201Z,981.55
2023-04-05T10:13:39.141Z,981.57
2023-04-05T10:14:39.054Z,981.57
2023-04-05T10:15:38.981Z,981.56
2023-04-05T10:16:38.922Z,981.55
2023-04-05T10:17:38.871Z,981.56
2023-04-05T10:18:59.708Z,981.56
2023-04-05T10:19:38.667Z,981.52
2023-04-05T10:20:38.659Z,981.52
2023-04-05T10:21:38.487Z,981.50
2023-04-05T10:22:38.404Z,981.53
2023-04-05T10:23:38.334Z,981.51
2023-04-05T10:24:59.219Z,981.53
2023-04-05T10:25:38.160Z,981.51
2023-04-05T10:26:38.080Z,981.50
2023-04-05T10:27:38.008Z,981.51
2023-04-05T10:28:37.915Z,981.50
2023-04-05T10:29:37.839Z,981.50
2023-04-05T10:30:58.771Z,981.50
2023-04-05T10:31:38.634Z,981.50
2023-04-05T10:32:37.667Z,981.50
2023-04-05T10:33:39.987Z,981.48
2023-04-05T10:34:37.439Z,981.48
2023-04-05T10:35:37.362Z,981.46
2023-04-05T10:36:58.300Z,981.49
2023-04-05T10:37:37.175Z,981.48
2023-04-05T10:38:37.107Z,981.48
2023-04-05T10:39:37.026Z,981.52
2023-04-05T10:40:36.941Z,981.49
2023-04-05T10:41:36.852Z,981.51
2023-04-05T10:42:57.796Z,981.51
2023-04-05T10:43:36.762Z,981.49
2023-04-05T10:44:36.617Z,981.49
2023-04-05T10:45:36.547Z,981.47
2023-04-05T10:46:36.539Z,981.46
2023-04-05T10:47:36.385Z,981.47
2023-04-05T10:48:57.260Z,981.45
2023-04-05T10:49:36.213Z,981.46
2023-04-05T10:50:36.126Z,981.42
2023-04-05T10:51:36.094Z,981.40
2023-04-05T10:52:35.954Z,981.41
2023-04-05T10:53:35.876Z,981.40
2023-04-05T10:54:56.773Z,981.41
2023-04-05T10:55:35.717Z,981.39
2023-04-05T10:56:35.641Z,981.44
2023-04-05T10:57:35.561Z,981.43
2023-04-05T10:58:35.470Z,981.45
2023-04-05T10:59:35.482Z,981.45
2023-04-05T11:00:56.332Z,981.48
2023-04-05T11:01:35.325Z,981.52
2023-04-05T11:02:35.213Z,981.52
2023-04-05T11:03:35.109Z,981.52
2023-04-05T11:04:35.079Z,981.49
2023-04-05T11:05:34.950Z,981.51
2023-04-05T11:06:55.809Z,981.43
2023-04-05T11:07:34.752Z,981.47
2023-04-05T11:08:34.668Z,981.45
2023-04-05T11:09:34.599Z,981.42
2023-04-05T11:10:34.529Z,981.43
2023-04-05T11:11:34.431Z,981.41
2023-04-05T11:12:55.340Z,981.40
2023-04-05T11:13:34.276Z,981.41
2023-04-05T11:14:34.200Z,981.38
2023-04-05T11:15:34.112Z,981.31
2023-04-05T11:16:34.066Z,981.34
2023-04-05T11:17:33.984Z,981.32
2023-04-05T11:18:54.901Z,981.30
2023-04-05T11:19:33.791Z,981.26
2023-04-05T11:20:33.725Z,981.16
2023-04-05T11:21:33.636Z,981.20
2023-04-05T11:22:33.552Z,981.19
2023-04-05T11:23:33.476Z,981.14
2023-04-05T11:24:54.374Z,981.21
2023-04-05T11:25:33.315Z,981.27
2023-04-05T11:26:33.239Z,981.26
2023-04-05T11:27:33.156Z,981.25
2023-04-05T11:28:33.072Z,981.23
2023-04-05T11:29:32.995Z,981.21
2023-04-05T11:30:53.917Z,981.23
2023-04-05T11:31:32.946Z,981.25
2023-04-05T11:32:32.762Z,981.19
2023-04-05T11:33:32.681Z,981.18
2023-04-05T11:34:32.597Z,981.17
2023-04-05T11:35:32.557Z,981.15
2023-04-05T11:36:53.507Z,981.17
2023-04-05T11:37:32.357Z,981.19
2023-04-05T11:38:32.273Z,981.16
2023-04-05T11:39:32.195Z,981.05
2023-04-05T11:40:32.135Z,981.12
2023-04-05T11:41:32.047Z,981.13
2023-04-05T11:42:52.937Z,981.13
2023-04-05T11:43:31.878Z,981.08
2023-04-05T11:44:31.801Z,981.10
2023-04-05T11:45:32.331Z,981.12
2023-04-05T11:46:31.744Z,981.11
2023-04-05T11:47:31.588Z,981.13
2023-04-05T11:48:52.469Z,981.12
2023-04-05T11:49:31.445Z,981.08
2023-04-05T11:50:31.316Z,981.05
2023-04-05T11:51:31.241Z,981.05
2023-04-05T11:52:31.161Z,981.02
2023-04-05T11:53:31.084Z,981.02
2023-04-05T11:54:51.990Z,981.02
2023-04-05T11:55:30.929Z,981.03
2023-04-05T11:56:30.840Z,981.02
2023-04-05T11:57:30.780Z,980.98
2023-04-05T11:58:30.680Z,981.03
2023-04-05T11:59:30.687Z,981.03
2023-04-05T12:00:51.507Z,981.01
2023-04-05T12:01:30.454Z,980.96
2023-04-05T12:02:30.459Z,980.95
2023-04-05T12:03:30.360Z,980.97
2023-04-05T12:04:30.276Z,980.96
2023-04-05T12:05:30.126Z,980.93
2023-04-05T12:06:51.021Z,980.96
2023-04-05T12:07:29.968Z,980.94
2023-04-05T12:08:29.884Z,980.95
2023-04-05T12:09:29.803Z,980.94
2023-04-05T12:10:29.724Z,980.90
2023-04-05T12:11:29.658Z,980.91
2023-04-05T12:12:50.566Z,980.88
2023-04-05T12:13:29.502Z,980.90
2023-04-05T12:14:29.409Z,980.87
2023-04-05T12:15:29.328Z,980.88
2023-04-05T12:16:29.322Z,980.86
2023-04-05T12:17:29.201Z,980.85
2023-04-05T12:18:50.075Z,980.86
2023-04-05T12:19:29.013Z,980.88
2023-04-05T12:20:28.933Z,980.83
2023-04-05T12:21:28.854Z,980.79
2023-04-05T12:22:28.775Z,980.76
2023-04-05T12:23:28.706Z,980.75
2023-04-05T12:24:49.600Z,980.75
2023-04-05T12:25:28.540Z,980.73
2023-04-05T12:26:28.483Z,980.71
2023-04-05T12:27:28.402Z,980.71